Terminal Aerodrome Forecast
Issued by NWS Duluth, MN

Home | Current Version | Previous Version | Text Only | Print | Product List | Glossary On
Versions: 1 2 3 4 5 6 7 8 9 10 11 12 13 14 15 16 17 18 19 20 21 22 23 24 25 26 27 28 29 30 31
133
FTUS43 KDLH 180858 AAB
TAFDLH
TAF AMD
KDLH 180858Z 1809/1906 23014KT P6SM SKC WS020/22030KT
     FM181000 23007KT 6SM BR SCT010 WS015/24040KT
     FM181400 24010KT P6SM FEW120=

USA.gov is the U.S. government's official web portal to all federal, state and local government web resources and services.